Airport ID:K00U
Update Time (UTC):08/03/2021 06:34
Wind Speed (Knots):4
Wind Direction (Magnetic):10
Temperature (°C):1
Dew Point (°C):-3
Humidity (%):75
Altimeter (inHg):30.03
Density Altitude (Feet):
Visibility:10+
Clouds (Hundreds of feet):FEW038 FEW043 SCT050
Present Weather:
METAR:METAR K00U 080630Z AUTO 01004KT 10SM SCT041 SCT050 01/M03 A3003 RMK A01

The data displayed is for advisory purposes only and is not to be used for flight planning or operations.